JP-0074 weather

Kagawa University Hospital Helipad
Miki-cho, Kagawa Prefecture, Japan

Public forecast

Using degrees Celsius for public forecast. Weather courtesy of forecast.io.

Closest aviation weather report (METAR) to Kagawa University Hospital Helipad

Closest report is Takamatsu Airport, 7.1 nm (13.1 km) SW. Retrieved 2019/12/06 05:00 UTC (28 minutes ago):

RJOT 060500Z 01003KT 290V080 9999 FEW025 SCT180 BKN/// 07/M01 Q1027

Closest aviation forecast (TAF) to Kagawa University Hospital Helipad

Closest forecast is Takamatsu Airport, 7.1 nm (13.1 km) SW. Retrieved 2019-12-06 00:36 UTC (5 hours ago):

TAF RJOT 052308Z 0600/0706 32005KT 9999 FEW020 SCT035 BKN050 BECMG 0606/0608 05005KT